Time,TemperatureF,DewpointF,PressureIn,WindDirection,WindDirectionDegrees,WindSpeedMPH,WindSpeedGustMPH,Humidity,HourlyPrecipIn,Conditions,Clouds,dailyrainin,SoftwareType,DateUTC
2013-09-14 00:22:00,44.0,42.0,-100.00,SE,145,2.0,3.0,93,-99.99,,,-99.99,,2013-09-14 05:22:00,
2013-09-14 00:34:00,44.0,42.0,-100.00,SE,145,2.0,3.0,93,-99.99,,,-99.99,,2013-09-14 05:34:00,
2013-09-14 00:43:00,44.0,42.0,-100.00,SE,145,2.0,3.0,93,-99.99,,,-99.99,,2013-09-14 05:43:00,
2013-09-14 00:52:00,44.0,42.0,-100.00,SE,145,2.0,3.0,93,-99.99,,,-99.99,,2013-09-14 05:52:00,
2013-09-14 01:22:00,43.0,42.0,-100.00,SSE,155,1.0,3.0,96,-99.99,,,-99.99,,2013-09-14 06:22:00,
2013-09-14 01:32:00,43.0,42.0,-100.00,SSE,155,1.0,3.0,96,-99.99,,,-99.99,,2013-09-14 06:32:00,
2013-09-14 01:42:00,43.0,42.0,-100.00,SSE,155,1.0,3.0,96,-99.99,,,-99.99,,2013-09-14 06:42:00,
2013-09-14 01:52:00,43.0,42.0,-100.00,SSE,155,1.0,3.0,96,-99.99,,,-99.99,,2013-09-14 06:52:00,
2013-09-14 02:22:00,42.0,41.0,-100.00,SSE,165,2.0,3.0,96,-99.99,,,-99.99,,2013-09-14 07:22:00,
2013-09-14 02:34:00,42.0,41.0,-100.00,SSE,165,2.0,3.0,96,-99.99,,,-99.99,,2013-09-14 07:34:00,
2013-09-14 02:42:00,42.0,41.0,-100.00,SSE,165,2.0,3.0,96,-99.99,,,-99.99,,2013-09-14 07:42:00,
2013-09-14 02:52:00,42.0,41.0,-100.00,SSE,165,2.0,3.0,96,-99.99,,,-99.99,,2013-09-14 07:52:00,
2013-09-14 03:22:00,41.0,40.0,-100.00,SE,135,0.0,1.0,96,-99.99,,,-99.99,,2013-09-14 08:22:00,
2013-09-14 03:32:00,41.0,40.0,-100.00,SE,135,0.0,1.0,96,-99.99,,,-99.99,,2013-09-14 08:32:00,
2013-09-14 03:42:00,41.0,40.0,-100.00,SE,135,0.0,1.0,96,-99.99,,,-99.99,,2013-09-14 08:42:00,
2013-09-14 03:52:00,41.0,40.0,-100.00,SE,135,0.0,1.0,96,-99.99,,,-99.99,,2013-09-14 08:52:00,
2013-09-14 04:22:00,40.0,39.0,-100.00,SSE,155,0.0,0.0,98,-99.99,,,-99.99,,2013-09-14 09:22:00,
2013-09-14 04:33:00,40.0,39.0,-100.00,SSE,155,0.0,0.0,98,-99.99,,,-99.99,,2013-09-14 09:33:00,
2013-09-14 04:43:00,40.0,39.0,-100.00,SSE,155,0.0,0.0,98,-99.99,,,-99.99,,2013-09-14 09:43:00,
2013-09-14 04:53:00,40.0,39.0,-100.00,SSE,155,0.0,0.0,98,-99.99,,,-99.99,,2013-09-14 09:53:00,
2013-09-14 05:23:00,39.0,39.0,-100.00,SE,130,3.0,4.0,99,-99.99,,,-99.99,,2013-09-14 10:23:00,
2013-09-14 05:32:00,39.0,39.0,-100.00,SE,130,3.0,4.0,99,-99.99,,,-99.99,,2013-09-14 10:32:00,
2013-09-14 05:42:00,39.0,39.0,-100.00,SE,130,3.0,4.0,99,-99.99,,,-99.99,,2013-09-14 10:42:00,
2013-09-14 05:52:00,39.0,39.0,-100.00,SE,130,3.0,4.0,99,-99.99,,,-99.99,,2013-09-14 10:52:00,
2013-09-14 06:22:00,40.0,40.0,-100.00,SE,140,1.0,4.0,99,-99.99,,,-99.99,,2013-09-14 11:22:00,
2013-09-14 06:33:00,40.0,40.0,-100.00,SE,140,1.0,4.0,99,-99.99,,,-99.99,,2013-09-14 11:33:00,
2013-09-14 06:42:00,40.0,40.0,-100.00,SE,140,1.0,4.0,99,-99.99,,,-99.99,,2013-09-14 11:42:00,
2013-09-14 06:52:00,40.0,40.0,-100.00,SE,140,1.0,4.0,99,-99.99,,,-99.99,,2013-09-14 11:52:00,
2013-09-14 07:22:00,41.0,40.0,-100.00,SE,125,2.0,4.0,99,-99.99,,,-99.99,,2013-09-14 12:22:00,
2013-09-14 07:32:00,41.0,40.0,-100.00,SE,125,2.0,4.0,99,-99.99,,,-99.99,,2013-09-14 12:32:00,
2013-09-14 07:42:00,41.0,40.0,-100.00,SE,125,2.0,4.0,99,-99.99,,,-99.99,,2013-09-14 12:42:00,
2013-09-14 07:52:00,41.0,40.0,-100.00,SE,125,2.0,4.0,99,-99.99,,,-99.99,,2013-09-14 12:52:00,
2013-09-14 08:21:00,45.0,44.0,-100.00,SE,130,2.0,4.0,99,-99.99,,,-99.99,,2013-09-14 13:21:00,
2013-09-14 08:32:00,45.0,44.0,-100.00,SE,130,2.0,4.0,99,-99.99,,,-99.99,,2013-09-14 13:32:00,
2013-09-14 08:42:00,45.0,44.0,-100.00,SE,130,2.0,4.0,99,-99.99,,,-99.99,,2013-09-14 13:42:00,
2013-09-14 08:52:00,45.0,44.0,-100.00,SE,130,2.0,4.0,99,-99.99,,,-99.99,,2013-09-14 13:52:00,
2013-09-14 09:22:00,55.0,47.0,-100.00,SSW,195,3.0,10.0,74,-99.99,,,-99.99,,2013-09-14 14:22:00,
2013-09-14 09:32:00,55.0,47.0,-100.00,SSW,195,3.0,10.0,74,-99.99,,,-99.99,,2013-09-14 14:32:00,
2013-09-14 09:42:00,55.0,47.0,-100.00,SSW,195,3.0,10.0,74,-99.99,,,-99.99,,2013-09-14 14:42:00,
2013-09-14 09:52:00,55.0,47.0,-100.00,SSW,195,3.0,10.0,74,-99.99,,,-99.99,,2013-09-14 14:52:00,
2013-09-14 10:22:00,60.0,43.0,-100.00,South,185,9.0,13.0,54,-99.99,,,-99.99,,2013-09-14 15:22:00,
2013-09-14 10:33:00,60.0,43.0,-100.00,South,185,9.0,13.0,54,-99.99,,,-99.99,,2013-09-14 15:33:00,
2013-09-14 10:43:00,60.0,43.0,-100.00,South,185,9.0,13.0,54,-99.99,,,-99.99,,2013-09-14 15:43:00,
2013-09-14 10:53:00,60.0,43.0,-100.00,South,185,9.0,13.0,54,-99.99,,,-99.99,,2013-09-14 15:53:00,
2013-09-14 10:54:00,66.0,43.0,-100.00,SW,230,7.0,13.0,44,-99.99,,,-99.99,,2013-09-14 15:54:00,
2013-09-14 11:23:00,66.0,43.0,-100.00,SW,230,7.0,13.0,44,-99.99,,,-99.99,,2013-09-14 16:23:00,
2013-09-14 11:33:00,66.0,43.0,-100.00,SW,230,7.0,13.0,44,-99.99,,,-99.99,,2013-09-14 16:33:00,
2013-09-14 11:44:00,66.0,43.0,-100.00,SW,230,7.0,13.0,44,-99.99,,,-99.99,,2013-09-14 16:44:00,
2013-09-14 11:54:00,69.0,43.0,-100.00,SSW,210,6.0,18.0,38,-99.99,,,-99.99,,2013-09-14 16:54:00,
2013-09-14 12:23:00,69.0,43.0,-100.00,SSW,210,6.0,18.0,38,-99.99,,,-99.99,,2013-09-14 17:23:00,
2013-09-14 12:33:00,69.0,43.0,-100.00,SSW,210,6.0,18.0,38,-99.99,,,-99.99,,2013-09-14 17:33:00,
2013-09-14 12:43:00,69.0,43.0,-100.00,SSW,210,6.0,18.0,38,-99.99,,,-99.99,,2013-09-14 17:43:00,
2013-09-14 13:22:00,72.0,44.0,-100.00,SSE,155,7.0,12.0,36,-99.99,,,-99.99,,2013-09-14 18:22:00,
2013-09-14 13:32:00,72.0,44.0,-100.00,SSE,155,7.0,12.0,36,-99.99,,,-99.99,,2013-09-14 18:32:00,
2013-09-14 13:43:00,72.0,44.0,-100.00,SSE,155,7.0,12.0,36,-99.99,,,-99.99,,2013-09-14 18:43:00,
2013-09-14 13:52:00,72.0,44.0,-100.00,SSE,155,7.0,12.0,36,-99.99,,,-99.99,,2013-09-14 18:52:00,
2013-09-14 14:22:00,73.0,43.0,-100.00,WSW,240,12.0,17.0,34,-99.99,,,-99.99,,2013-09-14 19:22:00,
2013-09-14 14:32:00,73.0,43.0,-100.00,WSW,240,12.0,17.0,34,-99.99,,,-99.99,,2013-09-14 19:32:00,
2013-09-14 14:42:00,73.0,43.0,-100.00,WSW,240,12.0,17.0,34,-99.99,,,-99.99,,2013-09-14 19:42:00,
2013-09-14 14:52:00,73.0,43.0,-100.00,WSW,240,12.0,17.0,34,-99.99,,,-99.99,,2013-09-14 19:52:00,
2013-09-14 15:22:00,71.0,43.0,-100.00,SW,220,8.0,16.0,36,-99.99,,,-99.99,,2013-09-14 20:22:00,
2013-09-14 15:32:00,71.0,43.0,-100.00,SW,220,8.0,16.0,36,-99.99,,,-99.99,,2013-09-14 20:32:00,
2013-09-14 15:42:00,71.0,43.0,-100.00,SW,220,8.0,16.0,36,-99.99,,,-99.99,,2013-09-14 20:42:00,
2013-09-14 15:52:00,71.0,43.0,-100.00,SW,220,8.0,16.0,36,-99.99,,,-99.99,,2013-09-14 20:52:00,
2013-09-14 15:54:00,71.0,43.0,-100.00,South,190,8.0,14.0,36,-99.99,,,-99.99,,2013-09-14 20:54:00,
2013-09-14 16:22:00,71.0,43.0,-100.00,South,190,8.0,14.0,36,-99.99,,,-99.99,,2013-09-14 21:22:00,
2013-09-14 16:33:00,71.0,43.0,-100.00,South,190,8.0,14.0,36,-99.99,,,-99.99,,2013-09-14 21:33:00,
2013-09-14 16:44:00,71.0,43.0,-100.00,South,190,8.0,14.0,36,-99.99,,,-99.99,,2013-09-14 21:44:00,
2013-09-14 17:24:00,71.0,43.0,-100.00,SSW,195,4.0,12.0,37,-99.99,,,-99.99,,2013-09-14 22:24:00,
2013-09-14 17:34:00,71.0,43.0,-100.00,SSW,195,4.0,12.0,37,-99.99,,,-99.99,,2013-09-14 22:34:00,
2013-09-14 17:42:00,71.0,43.0,-100.00,SSW,195,4.0,12.0,37,-99.99,,,-99.99,,2013-09-14 22:42:00,
2013-09-14 17:53:00,71.0,43.0,-100.00,SSW,195,4.0,12.0,37,-99.99,,,-99.99,,2013-09-14 22:53:00,
2013-09-14 18:23:00,70.0,44.0,-100.00,South,175,2.0,6.0,39,-99.99,,,-99.99,,2013-09-14 23:23:00,
2013-09-14 18:34:00,70.0,44.0,-100.00,South,175,2.0,6.0,39,-99.99,,,-99.99,,2013-09-14 23:34:00,
2013-09-14 18:42:00,70.0,44.0,-100.00,South,175,2.0,6.0,39,-99.99,,,-99.99,,2013-09-14 23:42:00,
2013-09-14 18:53:00,70.0,44.0,-100.00,South,175,2.0,6.0,39,-99.99,,,-99.99,,2013-09-14 23:53:00,
2013-09-14 19:22:00,68.0,43.0,-100.00,ESE,115,3.0,6.0,41,-99.99,,,-99.99,,2013-09-15 00:22:00,
2013-09-14 19:32:00,68.0,43.0,-100.00,ESE,115,3.0,6.0,41,-99.99,,,-99.99,,2013-09-15 00:32:00,
2013-09-14 19:42:00,68.0,43.0,-100.00,ESE,115,3.0,6.0,41,-99.99,,,-99.99,,2013-09-15 00:42:00,
2013-09-14 19:53:00,68.0,43.0,-100.00,ESE,115,3.0,6.0,41,-99.99,,,-99.99,,2013-09-15 00:53:00,
2013-09-14 20:22:00,62.0,54.0,-100.00,South,190,2.0,4.0,75,-99.99,,,-99.99,,2013-09-15 01:22:00,
2013-09-14 20:32:00,62.0,54.0,-100.00,South,190,2.0,4.0,75,-99.99,,,-99.99,,2013-09-15 01:32:00,
2013-09-14 20:42:00,62.0,54.0,-100.00,South,190,2.0,4.0,75,-99.99,,,-99.99,,2013-09-15 01:42:00,
2013-09-14 20:52:00,62.0,54.0,-100.00,South,190,2.0,4.0,75,-99.99,,,-99.99,,2013-09-15 01:52:00,
2013-09-14 21:22:00,58.0,56.0,-100.00,WNW,290,1.0,4.0,93,-99.99,,,-99.99,,2013-09-15 02:22:00,
2013-09-14 21:32:00,58.0,56.0,-100.00,WNW,290,1.0,4.0,93,-99.99,,,-99.99,,2013-09-15 02:32:00,
2013-09-14 21:42:00,58.0,56.0,-100.00,WNW,290,1.0,4.0,93,-99.99,,,-99.99,,2013-09-15 02:42:00,
2013-09-14 21:52:00,58.0,56.0,-100.00,WNW,290,1.0,4.0,93,-99.99,,,-99.99,,2013-09-15 02:52:00,
2013-09-14 21:53:00,57.0,57.0,-100.00,NE,35,0.0,3.0,98,-99.99,,,-99.99,,2013-09-15 02:53:00,
2013-09-14 22:22:00,57.0,57.0,-100.00,NE,35,0.0,3.0,98,-99.99,,,-99.99,,2013-09-15 03:22:00,
2013-09-14 22:34:00,57.0,57.0,-100.00,NE,35,0.0,3.0,98,-99.99,,,-99.99,,2013-09-15 03:34:00,
2013-09-14 22:44:00,57.0,57.0,-100.00,NE,35,0.0,3.0,98,-99.99,,,-99.99,,2013-09-15 03:44:00,
2013-09-14 22:54:00,56.0,55.0,-100.00,ENE,70,1.0,3.0,99,-99.99,,,-99.99,,2013-09-15 03:54:00,
2013-09-14 23:24:00,56.0,55.0,-100.00,ENE,70,1.0,3.0,99,-99.99,,,-99.99,,2013-09-15 04:24:00,
2013-09-14 23:34:00,56.0,55.0,-100.00,ENE,70,1.0,3.0,99,-99.99,,,-99.99,,2013-09-15 04:34:00,
2013-09-14 23:43:00,56.0,55.0,-100.00,ENE,70,1.0,3.0,99,-99.99,,,-99.99,,2013-09-15 04:43:00,